Disclaimer

Please do not use the information listed here in-flight or in-navigation, as they are not provided to us by the airports but are provided by volunteers, so they might be outdated.

Search


Regions


Airport information page

No radio frequency information is available.

Airport informations:
Latitude: 52° 31' 37.28" N
Longitude: 031° 01' 00.09" E
Elevation: 471 feet - 144 meters
Operating hours: 24 hour operations
Operating agency: Civil government, landing fees and diplomatic clearance may be required
Timezone: UTC+2(+3DT) - Last Sunday in March to last Sunday in October
Fuel: N/A

Runway information:
11/29 - 8432 x 141 feet< - >2570 x 43 meters

Recent METARs:
UMGG 151100Z 09003MPS 9000 OVC012 01/00 Q1031 R10/510450 NOSIG
UMGG 151130Z 10003MPS 9000 OVC015 01/00 Q1031 R10/510450 NOSIG
UMGG 151200Z 09003MPS 9000 OVC013 01/M00 Q1031 R10/510450 NOSIG

Airport on the map: